Challenge Peak — 9V9589 — position and weather

sailwx.info

Track history (hours):
 
Tides and Currents Weather Stations Pressure Air Temp Water Temp Dewpoint Dewpoint Depression Visibility Wind Speed Wind Dir Waves Ship Positions

Challenge Peak

Last reported at 2014-Sep-18 17:11 UTC. Time now 2014-Nov-22 05:05 UTC.
Position N 01°16' E 103°22'.
Warning: this ship's position is months out of date.

Length 182 m; draft 8.1 m.

Type: Tanker. MMSI: 566433000.

Date/timePositionNaut miles runAvg speedWind from/ knotsBaromVisibWave heightAir tempDewpointWater temp
2014-Sep-18 17:11N 01°16' E 103°22'914.0
2014-Sep-18 16:33N 01°12' E 103°30'10 9.8
2014-Sep-18 15:33N 01°12' E 103°39'1 1.1
2014-Sep-18 14:33N 01°14' E 103°39'1 1.5
2014-Sep-18 13:33N 01°13' E 103°41'5 4.9
2014-Sep-18 12:28N 01°17' E 103°44'0 0.0
2014-Sep-18 11:31N 01°17' E 103°44'0 0.0
2014-Sep-18 10:28N 01°17' E 103°44'0 0.0
2014-Sep-18 09:31N 01°17' E 103°44'0 0.0
2014-Sep-18 08:31N 01°17' E 103°44'0 0.0
2014-Sep-18 07:31N 01°17' E 103°44'0 0.0
2014-Sep-18 06:31N 01°17' E 103°44'0 0.0
2014-Sep-18 05:28N 01°17' E 103°44'0 0.0
2014-Sep-18 04:28N 01°17' E 103°44'0 0.0
2014-Sep-18 03:31N 01°17' E 103°44'0 0.0
2014-Sep-18 02:31N 01°17' E 103°44'0 0.0
2014-Sep-18 01:31N 01°17' E 103°44'0 0.0
2014-Sep-18 00:25N 01°17' E 103°44'0 0.0
2014-Sep-17 23:31N 01°17' E 103°44'0 0.0
2014-Sep-17 22:28N 01°17' E 103°44'0 0.0
2014-Sep-17 21:31N 01°17' E 103°44'0 0.0
2014-Sep-17 20:25N 01°17' E 103°44'0 0.0
2014-Sep-17 19:31N 01°17' E 103°44'0 0.0
2014-Sep-17 18:28N 01°17' E 103°44'0 0.0
2014-Sep-17 17:31N 01°17' E 103°44'0 0.0
2014-Sep-17 16:31N 01°17' E 103°44'0 0.0
2014-Sep-17 15:31N 01°17' E 103°44'0 0.0
2014-Sep-17 14:31N 01°17' E 103°44'0 0.0
2014-Sep-17 13:31N 01°17' E 103°44'0 0.0
2014-Sep-17 12:31N 01°17' E 103°44'0 0.0
2014-Sep-17 11:31N 01°17' E 103°44'0 0.0
2014-Sep-17 10:31N 01°17' E 103°44'0 0.0
2014-Sep-17 09:31N 01°17' E 103°44'0 0.0
2014-Sep-17 08:31N 01°17' E 103°44'0 0.0
2014-Sep-17 07:31N 01°17' E 103°44'0 0.0
2014-Sep-17 06:31N 01°17' E 103°44'0 0.0
2014-Sep-17 05:31N 01°17' E 103°44'0 0.0
2014-Sep-17 04:31N 01°17' E 103°44'0 0.0
2014-Sep-17 03:28N 01°17' E 103°44'0 0.0
2014-Sep-17 02:28N 01°17' E 103°44'0 0.0
2014-Sep-17 01:28N 01°17' E 103°44'0 0.0
2014-Sep-17 00:28N 01°17' E 103°44'0 0.0
2014-Sep-16 23:31N 01°17' E 103°44'0 0.0
2014-Sep-16 22:29N 01°17' E 103°44'0 0.0
2014-Sep-16 21:28N 01°17' E 103°44'0 0.0
2014-Sep-16 20:31N 01°17' E 103°44'0 0.3
2014-Sep-16 19:33N 01°17' E 103°44'6 5.8
2014-Sep-16 18:31N 01°13' E 103°48'0 0.0
2014-Sep-16 17:31N 01°13' E 103°48'0 0.1
2014-Sep-16 16:31N 01°13' E 103°48'0 0.0
2014-Sep-16 15:31N 01°13' E 103°48'0 0.1
2014-Sep-16 14:31N 01°13' E 103°48'0 0.0
2014-Sep-16 13:31N 01°13' E 103°48'0 0.1
2014-Sep-16 12:31N 01°13' E 103°48'0 0.1
2014-Sep-16 11:31N 01°13' E 103°48'0 0.1
2014-Sep-16 10:31N 01°13' E 103°48'0 0.0
2014-Sep-16 09:31N 01°13' E 103°48'0 0.0
2014-Sep-16 08:31N 01°13' E 103°48'0 0.0
2014-Sep-16 07:28N 01°13' E 103°48'0 0.1
2014-Sep-16 06:28N 01°13' E 103°48'0 0.0
2014-Sep-16 05:28N 01°13' E 103°48'0 0.0
2014-Sep-16 04:28N 01°13' E 103°48'0 0.0
2014-Sep-16 03:31N 01°13' E 103°48'0 0.0
2014-Sep-16 02:28N 01°13' E 103°48'0 0.0
2014-Sep-16 01:31N 01°13' E 103°48'0 0.1
2014-Sep-16 00:25N 01°13' E 103°48'0 0.0
2014-Sep-15 23:16N 01°13' E 103°48'0 0.0
2014-Sep-15 22:28N 01°13' E 103°48'0 0.1
2014-Sep-15 21:31N 01°13' E 103°48'0 0.0
2014-Sep-15 20:31N 01°13' E 103°48'0 0.1
2014-Sep-15 19:31N 01°13' E 103°48'0 0.0
2014-Sep-15 18:31N 01°13' E 103°48'0 0.0
2014-Sep-15 17:31N 01°13' E 103°48'0 0.1
2014-Sep-15 16:25N 01°13' E 103°48'0 0.1
2014-Sep-15 15:31N 01°13' E 103°48'0 0.0
2014-Sep-15 14:31N 01°13' E 103°48'0 0.0
2014-Sep-15 13:31N 01°13' E 103°48'0 0.0
2014-Sep-15 12:31N 01°13' E 103°48'0 0.0
2014-Sep-15 11:31N 01°13' E 103°48'0 0.0
2014-Sep-15 10:31N 01°13' E 103°48'0 0.1
2014-Sep-15 09:31N 01°13' E 103°48'0 0.0
2014-Sep-15 08:31N 01°13' E 103°48'0 0.1
2014-Sep-15 07:31N 01°13' E 103°48'0 0.0
2014-Sep-15 06:31N 01°13' E 103°48'0 0.0
2014-Sep-15 05:28N 01°13' E 103°48'0 0.1
2014-Sep-15 04:16N 01°13' E 103°48'0 0.1
2014-Sep-15 03:28N 01°13' E 103°48'0 0.0
2014-Sep-15 02:31N 01°13' E 103°48'0 0.1
2014-Sep-15 01:31N 01°13' E 103°48'0 0.0
2014-Sep-15 00:28N 01°13' E 103°48'0 0.0
2014-Sep-14 23:16N 01°13' E 103°48'0 0.1
2014-Sep-14 22:31N 01°13' E 103°48'0 0.1
2014-Sep-14 21:31N 01°13' E 103°48'0 0.1
2014-Sep-14 20:31N 01°13' E 103°48'0 0.0
2014-Sep-14 19:31N 01°13' E 103°48'0 0.0
2014-Sep-14 18:31N 01°13' E 103°48'0 0.0
2014-Sep-14 17:31N 01°13' E 103°48'0 0.0
2014-Sep-14 16:31N 01°13' E 103°48'0 0.1
2014-Sep-14 15:31N 01°13' E 103°48'0 0.0
2014-Sep-14 14:31N 01°13' E 103°48'0 0.0
2014-Sep-14 13:31N 01°13' E 103°48'0 0.0
2014-Sep-14 12:28N 01°13' E 103°48'0 0.0
2014-Sep-14 11:31N 01°13' E 103°48'0 0.0
2014-Sep-14 10:31N 01°13' E 103°48'0 0.0
2014-Sep-14 09:31N 01°13' E 103°48'3 3.1
2014-Sep-14 08:33N 01°13' E 103°51'10 9.8
2014-Sep-14 07:33N 01°16' E 104°01'8 8.1
2014-Sep-14 06:33N 01°17' E 104°09'11 0.2
2014-Sep-12 08:34N 01°14' E 103°58'10 9.5
2014-Sep-12 07:30N 01°13' E 103°48'1 1.3
2014-Sep-12 06:30N 01°14' E 103°49'0 0.0
2014-Sep-12 05:31N 01°14' E 103°49'0 0.1
2014-Sep-12 04:33N 01°14' E 103°49'0 0.1
2014-Sep-12 03:18N 01°14' E 103°49'0 0.0
2014-Sep-12 01:12N 01°14' E 103°49'0 0.2
2014-Sep-12 00:31N 01°14' E 103°49'0 0.1
2014-Sep-11 23:24N 01°14' E 103°49'0 0.1
2014-Sep-11 22:30N 01°14' E 103°49'0 0.0
2014-Sep-11 21:30N 01°14' E 103°49'0 0.0
2014-Sep-11 20:30N 01°14' E 103°49'0 0.1
2014-Sep-11 19:27N 01°14' E 103°49'0 0.1
2014-Sep-11 18:30N 01°14' E 103°49'0 0.1
2014-Sep-11 17:34N 01°14' E 103°49'0 0.1
2014-Sep-11 16:31N 01°14' E 103°49'0 0.0
2014-Sep-11 15:30N 01°14' E 103°49'0 0.1
2014-Sep-11 14:30N 01°14' E 103°49'0 0.0
2014-Sep-11 13:33N 01°14' E 103°49'0 0.1
2014-Sep-11 12:33N 01°14' E 103°49'0 0.2
2014-Sep-11 11:34N 01°14' E 103°49'0 0.0
2014-Sep-11 10:34N 01°14' E 103°49'0 0.0
2014-Sep-11 09:15N 01°14' E 103°49'0 0.1
2014-Sep-11 07:21N 01°14' E 103°49'0 0.1
2014-Sep-11 05:34N 01°14' E 103°49'0 0.0
2014-Sep-11 04:33N 01°14' E 103°49'0 0.0
2014-Sep-11 03:33N 01°14' E 103°49'1 0.6
2014-Sep-11 02:31N 01°14' E 103°48'6 5.9
2014-Sep-11 01:33N 01°18' E 103°44'0 0.1
2014-Sep-11 00:32N 01°17' E 103°44'0 0.0
2014-Sep-09 05:25N 01°17' E 103°44'1 1.2
2014-Sep-09 04:33N 01°17' E 103°45'4 3.8
2014-Sep-09 03:33N 01°14' E 103°42'4 3.5
2014-Sep-09 02:29N 01°18' E 103°42'  
Track history (hours):
 
Tides and Currents Weather Stations Pressure Air Temp Water Temp Dewpoint Dewpoint Depression Visibility Wind Speed Wind Dir Waves Ship Positions

Challenge Peak

Last reported at 2014-Sep-18 17:11 UTC. Time now 2014-Nov-22 05:05 UTC.
Position N 01°16' E 103°22'.
Warning: this ship's position is months out of date.

Length 182 m; draft 8.1 m.

Type: Tanker. MMSI: 566433000.

Date/timePositionNaut miles runAvg speedWind from/ knotsBaromVisibWave heightAir tempDewpointWater temp
2014-Sep-18 17:11N 01°16' E 103°22'914.0
2014-Sep-18 16:33N 01°12' E 103°30'10 9.8
2014-Sep-18 15:33N 01°12' E 103°39'1 1.1
2014-Sep-18 14:33N 01°14' E 103°39'1 1.5
2014-Sep-18 13:33N 01°13' E 103°41'5 4.9
2014-Sep-18 12:28N 01°17' E 103°44'0 0.0
2014-Sep-18 11:31N 01°17' E 103°44'0 0.0
2014-Sep-18 10:28N 01°17' E 103°44'0 0.0
2014-Sep-18 09:31N 01°17' E 103°44'0 0.0
2014-Sep-18 08:31N 01°17' E 103°44'0 0.0
2014-Sep-18 07:31N 01°17' E 103°44'0 0.0
2014-Sep-18 06:31N 01°17' E 103°44'0 0.0
2014-Sep-18 05:28N 01°17' E 103°44'0 0.0
2014-Sep-18 04:28N 01°17' E 103°44'0 0.0
2014-Sep-18 03:31N 01°17' E 103°44'0 0.0
2014-Sep-18 02:31N 01°17' E 103°44'0 0.0
2014-Sep-18 01:31N 01°17' E 103°44'0 0.0
2014-Sep-18 00:25N 01°17' E 103°44'0 0.0
2014-Sep-17 23:31N 01°17' E 103°44'0 0.0
2014-Sep-17 22:28N 01°17' E 103°44'0 0.0
2014-Sep-17 21:31N 01°17' E 103°44'0 0.0
2014-Sep-17 20:25N 01°17' E 103°44'0 0.0
2014-Sep-17 19:31N 01°17' E 103°44'0 0.0
2014-Sep-17 18:28N 01°17' E 103°44'0 0.0
2014-Sep-17 17:31N 01°17' E 103°44'0 0.0
2014-Sep-17 16:31N 01°17' E 103°44'0 0.0
2014-Sep-17 15:31N 01°17' E 103°44'0 0.0
2014-Sep-17 14:31N 01°17' E 103°44'0 0.0
2014-Sep-17 13:31N 01°17' E 103°44'0 0.0
2014-Sep-17 12:31N 01°17' E 103°44'0 0.0
2014-Sep-17 11:31N 01°17' E 103°44'0 0.0
2014-Sep-17 10:31N 01°17' E 103°44'0 0.0
2014-Sep-17 09:31N 01°17' E 103°44'0 0.0
2014-Sep-17 08:31N 01°17' E 103°44'0 0.0
2014-Sep-17 07:31N 01°17' E 103°44'0 0.0
2014-Sep-17 06:31N 01°17' E 103°44'0 0.0
2014-Sep-17 05:31N 01°17' E 103°44'0 0.0
2014-Sep-17 04:31N 01°17' E 103°44'0 0.0
2014-Sep-17 03:28N 01°17' E 103°44'0 0.0
2014-Sep-17 02:28N 01°17' E 103°44'0 0.0
2014-Sep-17 01:28N 01°17' E 103°44'0 0.0
2014-Sep-17 00:28N 01°17' E 103°44'0 0.0
2014-Sep-16 23:31N 01°17' E 103°44'0 0.0
2014-Sep-16 22:29N 01°17' E 103°44'0 0.0
2014-Sep-16 21:28N 01°17' E 103°44'0 0.0
2014-Sep-16 20:31N 01°17' E 103°44'0 0.3
2014-Sep-16 19:33N 01°17' E 103°44'6 5.8
2014-Sep-16 18:31N 01°13' E 103°48'0 0.0
2014-Sep-16 17:31N 01°13' E 103°48'0 0.1
2014-Sep-16 16:31N 01°13' E 103°48'0 0.0
2014-Sep-16 15:31N 01°13' E 103°48'0 0.1
2014-Sep-16 14:31N 01°13' E 103°48'0 0.0
2014-Sep-16 13:31N 01°13' E 103°48'0 0.1
2014-Sep-16 12:31N 01°13' E 103°48'0 0.1
2014-Sep-16 11:31N 01°13' E 103°48'0 0.1
2014-Sep-16 10:31N 01°13' E 103°48'0 0.0
2014-Sep-16 09:31N 01°13' E 103°48'0 0.0
2014-Sep-16 08:31N 01°13' E 103°48'0 0.0
2014-Sep-16 07:28N 01°13' E 103°48'0 0.1
2014-Sep-16 06:28N 01°13' E 103°48'0 0.0
2014-Sep-16 05:28N 01°13' E 103°48'0 0.0
2014-Sep-16 04:28N 01°13' E 103°48'0 0.0
2014-Sep-16 03:31N 01°13' E 103°48'0 0.0
2014-Sep-16 02:28N 01°13' E 103°48'0 0.0
2014-Sep-16 01:31N 01°13' E 103°48'0 0.1
2014-Sep-16 00:25N 01°13' E 103°48'0 0.0
2014-Sep-15 23:16N 01°13' E 103°48'0 0.0
2014-Sep-15 22:28N 01°13' E 103°48'0 0.1
2014-Sep-15 21:31N 01°13' E 103°48'0 0.0
2014-Sep-15 20:31N 01°13' E 103°48'0 0.1
2014-Sep-15 19:31N 01°13' E 103°48'0 0.0
2014-Sep-15 18:31N 01°13' E 103°48'0 0.0
2014-Sep-15 17:31N 01°13' E 103°48'0 0.1
2014-Sep-15 16:25N 01°13' E 103°48'0 0.1
2014-Sep-15 15:31N 01°13' E 103°48'0 0.0
2014-Sep-15 14:31N 01°13' E 103°48'0 0.0
2014-Sep-15 13:31N 01°13' E 103°48'0 0.0
2014-Sep-15 12:31N 01°13' E 103°48'0 0.0
2014-Sep-15 11:31N 01°13' E 103°48'0 0.0
2014-Sep-15 10:31N 01°13' E 103°48'0 0.1
2014-Sep-15 09:31N 01°13' E 103°48'0 0.0
2014-Sep-15 08:31N 01°13' E 103°48'0 0.1
2014-Sep-15 07:31N 01°13' E 103°48'0 0.0
2014-Sep-15 06:31N 01°13' E 103°48'0 0.0
2014-Sep-15 05:28N 01°13' E 103°48'0 0.1
2014-Sep-15 04:16N 01°13' E 103°48'0 0.1
2014-Sep-15 03:28N 01°13' E 103°48'0 0.0
2014-Sep-15 02:31N 01°13' E 103°48'0 0.1
2014-Sep-15 01:31N 01°13' E 103°48'0 0.0
2014-Sep-15 00:28N 01°13' E 103°48'0 0.0
2014-Sep-14 23:16N 01°13' E 103°48'0 0.1
2014-Sep-14 22:31N 01°13' E 103°48'0 0.1
2014-Sep-14 21:31N 01°13' E 103°48'0 0.1
2014-Sep-14 20:31N 01°13' E 103°48'0 0.0
2014-Sep-14 19:31N 01°13' E 103°48'0 0.0
2014-Sep-14 18:31N 01°13' E 103°48'0 0.0
2014-Sep-14 17:31N 01°13' E 103°48'0 0.0
2014-Sep-14 16:31N 01°13' E 103°48'0 0.1
2014-Sep-14 15:31N 01°13' E 103°48'0 0.0
2014-Sep-14 14:31N 01°13' E 103°48'0 0.0
2014-Sep-14 13:31N 01°13' E 103°48'0 0.0
2014-Sep-14 12:28N 01°13' E 103°48'0 0.0
2014-Sep-14 11:31N 01°13' E 103°48'0 0.0
2014-Sep-14 10:31N 01°13' E 103°48'0 0.0
2014-Sep-14 09:31N 01°13' E 103°48'3 3.1
2014-Sep-14 08:33N 01°13' E 103°51'10 9.8
2014-Sep-14 07:33N 01°16' E 104°01'8 8.1
2014-Sep-14 06:33N 01°17' E 104°09'11 0.2
2014-Sep-12 08:34N 01°14' E 103°58'10 9.5
2014-Sep-12 07:30N 01°13' E 103°48'1 1.3
2014-Sep-12 06:30N 01°14' E 103°49'0 0.0
2014-Sep-12 05:31N 01°14' E 103°49'0 0.1
2014-Sep-12 04:33N 01°14' E 103°49'0 0.1
2014-Sep-12 03:18N 01°14' E 103°49'0 0.0
2014-Sep-12 01:12N 01°14' E 103°49'0 0.2
2014-Sep-12 00:31N 01°14' E 103°49'0 0.1
2014-Sep-11 23:24N 01°14' E 103°49'0 0.1
2014-Sep-11 22:30N 01°14' E 103°49'0 0.0
2014-Sep-11 21:30N 01°14' E 103°49'0 0.0
2014-Sep-11 20:30N 01°14' E 103°49'0 0.1
2014-Sep-11 19:27N 01°14' E 103°49'0 0.1
2014-Sep-11 18:30N 01°14' E 103°49'0 0.1
2014-Sep-11 17:34N 01°14' E 103°49'0 0.1
2014-Sep-11 16:31N 01°14' E 103°49'0 0.0
2014-Sep-11 15:30N 01°14' E 103°49'0 0.1
2014-Sep-11 14:30N 01°14' E 103°49'0 0.0
2014-Sep-11 13:33N 01°14' E 103°49'0 0.1
2014-Sep-11 12:33N 01°14' E 103°49'0 0.2
2014-Sep-11 11:34N 01°14' E 103°49'0 0.0
2014-Sep-11 10:34N 01°14' E 103°49'0 0.0
2014-Sep-11 09:15N 01°14' E 103°49'0 0.1
2014-Sep-11 07:21N 01°14' E 103°49'0 0.1
2014-Sep-11 05:34N 01°14' E 103°49'0 0.0
2014-Sep-11 04:33N 01°14' E 103°49'0 0.0
2014-Sep-11 03:33N 01°14' E 103°49'1 0.6
2014-Sep-11 02:31N 01°14' E 103°48'6 5.9
2014-Sep-11 01:33N 01°18' E 103°44'0 0.1
2014-Sep-11 00:32N 01°17' E 103°44'0 0.0
2014-Sep-09 05:25N 01°17' E 103°44'1 1.2
2014-Sep-09 04:33N 01°17' E 103°45'4 3.8
2014-Sep-09 03:33N 01°14' E 103°42'4 3.5
2014-Sep-09 02:29N 01°18' E 103°42'  

Dump ship's entire track history